KMML

Southwest Minnesota Regional Marshall / Ryan Field Airport

Marshall, Minnesota, USA
METAR KMML 260256Z AUTO 23012KT 10SM CLR M04/M08 A2993 RMK AO2 SLP158 T10441078 53012 FZRANO
Observed Flight Rules
Feb-26 @ 02:56 UTC (31 minutes ago) Visual Flight Rules
Wind Visibility Clouds
230° at 12 knots 10 miles
  • Clear skies
Temperatures Readings
Current -4°C / 25°F
Dewpoint -8°C / 18°F
Humidity 74%
Altimeter 29.93" Hg
Pressure 1015.8 hPa
Elevation 359
METAR KMML 260256Z AUTO 23012KT 10SM CLR M04/M08 A2993 RMK AO2 SLP158 T10441078 53012 FZRANO
Observed Flight Rules
Feb-26 @ 02:56 UTC
(31 minutes ago)
VFR
Wind Visibility
230° at 12 knots 10 miles
Clouds
  • Clear skies
Temperature Dewpoint
-4°C / 25°F -8°C / 18°F
Humidity Altimeter Pressure
74% 29.93" Hg 1015.8 hPa